sensor_id;sensor_type;location;lat;lon;timestamp;temperature;humidity
11762;DHT22;5938;47.098;15.474;2022-12-10T00:02:28;1.80;99.90
11762;DHT22;5938;47.098;15.474;2022-12-10T00:06:34;2.30;99.90
11762;DHT22;5938;47.098;15.474;2022-12-10T00:10:39;2.40;99.90
11762;DHT22;5938;47.098;15.474;2022-12-10T00:14:42;2.40;99.90
11762;DHT22;5938;47.098;15.474;2022-12-10T00:18:47;2.30;99.90
11762;DHT22;5938;47.098;15.474;2022-12-10T00:22:50;2.20;99.90
11762;DHT22;5938;47.098;15.474;2022-12-10T00:26:54;2.30;99.90
11762;DHT22;5938;47.098;15.474;2022-12-10T00:31:03;2.40;99.90
11762;DHT22;5938;47.098;15.474;2022-12-10T00:35:08;2.30;99.90
11762;DHT22;5938;47.098;15.474;2022-12-10T00:39:13;2.30;99.90
11762;DHT22;5938;47.098;15.474;2022-12-10T00:43:17;2.30;99.90
11762;DHT22;5938;47.098;15.474;2022-12-10T00:47:20;2.30;99.90
11762;DHT22;5938;47.098;15.474;2022-12-10T00:51:26;2.40;99.90
11762;DHT22;5938;47.098;15.474;2022-12-10T00:55:30;2.40;99.90
11762;DHT22;5938;47.098;15.474;2022-12-10T00:59:33;2.30;99.90
11762;DHT22;5938;47.098;15.474;2022-12-10T01:03:37;2.30;99.90
11762;DHT22;5938;47.098;15.474;2022-12-10T01:07:42;2.40;99.90
11762;DHT22;5938;47.098;15.474;2022-12-10T01:11:47;2.40;99.90
11762;DHT22;5938;47.098;15.474;2022-12-10T01:15:50;2.40;99.90
11762;DHT22;5938;47.098;15.474;2022-12-10T01:19:53;2.40;99.90
11762;DHT22;5938;47.098;15.474;2022-12-10T01:23:59;2.50;99.90
11762;DHT22;5938;47.098;15.474;2022-12-10T01:28:03;2.60;99.90
11762;DHT22;5938;47.098;15.474;2022-12-10T01:32:06;2.50;99.90
11762;DHT22;5938;47.098;15.474;2022-12-10T01:36:11;2.60;99.90
11762;DHT22;5938;47.098;15.474;2022-12-10T01:40:17;2.60;99.90
11762;DHT22;5938;47.098;15.474;2022-12-10T01:44:59;2.60;99.90
11762;DHT22;5938;47.098;15.474;2022-12-10T01:49:05;2.70;99.90
11762;DHT22;5938;47.098;15.474;2022-12-10T01:53:09;2.80;99.90
11762;DHT22;5938;47.098;15.474;2022-12-10T01:57:17;2.70;99.90
11762;DHT22;5938;47.098;15.474;2022-12-10T02:01:27;2.70;99.90
11762;DHT22;5938;47.098;15.474;2022-12-10T02:05:37;2.80;99.90
11762;DHT22;5938;47.098;15.474;2022-12-10T02:09:48;2.80;99.90
11762;DHT22;5938;47.098;15.474;2022-12-10T02:14:00;2.90;99.90
11762;DHT22;5938;47.098;15.474;2022-12-10T02:18:08;2.80;99.90
11762;DHT22;5938;47.098;15.474;2022-12-10T02:22:14;2.80;99.90
11762;DHT22;5938;47.098;15.474;2022-12-10T02:26:24;2.90;99.90
11762;DHT22;5938;47.098;15.474;2022-12-10T02:30:32;3.00;99.90
11762;DHT22;5938;47.098;15.474;2022-12-10T02:34:38;3.00;99.90
11762;DHT22;5938;47.098;15.474;2022-12-10T02:38:44;3.10;99.90
11762;DHT22;5938;47.098;15.474;2022-12-10T02:42:50;3.10;99.90
11762;DHT22;5938;47.098;15.474;2022-12-10T02:46:56;3.00;99.90
11762;DHT22;5938;47.098;15.474;2022-12-10T02:51:01;3.10;99.90
11762;DHT22;5938;47.098;15.474;2022-12-10T02:55:05;3.10;99.90
11762;DHT22;5938;47.098;15.474;2022-12-10T02:59:19;3.10;99.90
11762;DHT22;5938;47.098;15.474;2022-12-10T03:03:41;3.20;99.90
11762;DHT22;5938;47.098;15.474;2022-12-10T03:07:53;3.20;99.90
11762;DHT22;5938;47.098;15.474;2022-12-10T03:12:01;3.30;99.90
11762;DHT22;5938;47.098;15.474;2022-12-10T03:16:06;3.30;99.90
11762;DHT22;5938;47.098;15.474;2022-12-10T03:20:13;3.40;99.90
11762;DHT22;5938;47.098;15.474;2022-12-10T03:24:17;3.30;99.90
11762;DHT22;5938;47.098;15.474;2022-12-10T03:28:21;3.40;99.90
11762;DHT22;5938;47.098;15.474;2022-12-10T03:32:27;3.30;99.90
11762;DHT22;5938;47.098;15.474;2022-12-10T03:36:33;3.30;99.90
11762;DHT22;5938;47.098;15.474;2022-12-10T03:40:37;3.20;99.90
11762;DHT22;5938;47.098;15.474;2022-12-10T03:44:41;3.30;99.90
11762;DHT22;5938;47.098;15.474;2022-12-10T03:48:44;3.30;99.90
11762;DHT22;5938;47.098;15.474;2022-12-10T03:52:49;3.30;99.90
11762;DHT22;5938;47.098;15.474;2022-12-10T03:56:53;3.30;99.90
11762;DHT22;5938;47.098;15.474;2022-12-10T04:00:56;3.40;99.90
11762;DHT22;5938;47.098;15.474;2022-12-10T04:05:00;3.40;99.90
11762;DHT22;5938;47.098;15.474;2022-12-10T04:09:05;3.30;99.90
11762;DHT22;5938;47.098;15.474;2022-12-10T04:13:08;3.30;99.90
11762;DHT22;5938;47.098;15.474;2022-12-10T04:17:31;3.30;99.90
11762;DHT22;5938;47.098;15.474;2022-12-10T04:21:37;3.30;99.90
11762;DHT22;5938;47.098;15.474;2022-12-10T04:25:59;3.30;99.90
11762;DHT22;5938;47.098;15.474;2022-12-10T04:30:20;3.30;99.90
11762;DHT22;5938;47.098;15.474;2022-12-10T04:34:24;3.30;99.90
11762;DHT22;5938;47.098;15.474;2022-12-10T04:38:27;3.30;99.90
11762;DHT22;5938;47.098;15.474;2022-12-10T04:42:32;3.40;99.90
11762;DHT22;5938;47.098;15.474;2022-12-10T04:46:36;3.40;99.90
11762;DHT22;5938;47.098;15.474;2022-12-10T04:50:39;3.30;99.90
11762;DHT22;5938;47.098;15.474;2022-12-10T04:54:43;3.30;99.90
11762;DHT22;5938;47.098;15.474;2022-12-10T04:58:48;3.30;99.90
11762;DHT22;5938;47.098;15.474;2022-12-10T05:02:51;3.40;99.90
11762;DHT22;5938;47.098;15.474;2022-12-10T05:06:55;3.40;99.90
11762;DHT22;5938;47.098;15.474;2022-12-10T05:11:01;3.30;99.90
11762;DHT22;5938;47.098;15.474;2022-12-10T05:15:07;3.30;99.90
11762;DHT22;5938;47.098;15.474;2022-12-10T05:19:11;3.30;99.90
11762;DHT22;5938;47.098;15.474;2022-12-10T05:23:14;3.40;99.90
11762;DHT22;5938;47.098;15.474;2022-12-10T05:27:33;3.40;99.90
11762;DHT22;5938;47.098;15.474;2022-12-10T05:31:38;3.40;99.90
11762;DHT22;5938;47.098;15.474;2022-12-10T05:35:41;3.40;99.90
11762;DHT22;5938;47.098;15.474;2022-12-10T05:39:44;3.50;99.90
11762;DHT22;5938;47.098;15.474;2022-12-10T05:43:48;3.40;99.90
11762;DHT22;5938;47.098;15.474;2022-12-10T05:47:53;3.40;99.90
11762;DHT22;5938;47.098;15.474;2022-12-10T05:51:56;3.40;99.90
11762;DHT22;5938;47.098;15.474;2022-12-10T05:56:00;3.40;99.90
11762;DHT22;5938;47.098;15.474;2022-12-10T06:00:04;3.40;99.90
11762;DHT22;5938;47.098;15.474;2022-12-10T06:04:11;3.40;99.90
11762;DHT22;5938;47.098;15.474;2022-12-10T06:08:14;3.40;99.90
11762;DHT22;5938;47.098;15.474;2022-12-10T06:12:19;3.40;99.90
11762;DHT22;5938;47.098;15.474;2022-12-10T06:16:24;3.50;99.90
11762;DHT22;5938;47.098;15.474;2022-12-10T06:20:30;3.40;99.90
11762;DHT22;5938;47.098;15.474;2022-12-10T06:24:33;3.40;99.90
11762;DHT22;5938;47.098;15.474;2022-12-10T06:28:38;3.50;99.90
11762;DHT22;5938;47.098;15.474;2022-12-10T06:32:41;3.40;99.90
11762;DHT22;5938;47.098;15.474;2022-12-10T06:36:47;3.50;99.90
11762;DHT22;5938;47.098;15.474;2022-12-10T06:40:54;3.50;99.90
11762;DHT22;5938;47.098;15.474;2022-12-10T06:44:57;3.50;99.90
11762;DHT22;5938;47.098;15.474;2022-12-10T06:49:00;3.50;99.90
11762;DHT22;5938;47.098;15.474;2022-12-10T06:53:05;3.50;99.90
11762;DHT22;5938;47.098;15.474;2022-12-10T06:57:08;3.40;99.90
11762;DHT22;5938;47.098;15.474;2022-12-10T07:01:14;3.50;99.90
11762;DHT22;5938;47.098;15.474;2022-12-10T07:05:18;3.40;99.90
11762;DHT22;5938;47.098;15.474;2022-12-10T07:09:22;3.50;99.90
11762;DHT22;5938;47.098;15.474;2022-12-10T07:13:28;3.50;99.90
11762;DHT22;5938;47.098;15.474;2022-12-10T07:17:33;3.60;99.90
11762;DHT22;5938;47.098;15.474;2022-12-10T07:21:39;3.60;99.90
11762;DHT22;5938;47.098;15.474;2022-12-10T07:25:44;3.60;99.90
11762;DHT22;5938;47.098;15.474;2022-12-10T07:29:47;3.60;99.90
11762;DHT22;5938;47.098;15.474;2022-12-10T07:33:51;3.60;99.90
11762;DHT22;5938;47.098;15.474;2022-12-10T07:37:55;3.60;99.90
11762;DHT22;5938;47.098;15.474;2022-12-10T07:41:59;3.60;99.90
11762;DHT22;5938;47.098;15.474;2022-12-10T07:46:04;3.60;99.90
11762;DHT22;5938;47.098;15.474;2022-12-10T07:50:07;3.50;99.90
11762;DHT22;5938;47.098;15.474;2022-12-10T07:54:12;3.60;99.90
11762;DHT22;5938;47.098;15.474;2022-12-10T07:58:16;3.70;99.90
11762;DHT22;5938;47.098;15.474;2022-12-10T08:02:20;3.80;99.90
11762;DHT22;5938;47.098;15.474;2022-12-10T08:06:26;3.80;99.90
11762;DHT22;5938;47.098;15.474;2022-12-10T08:10:29;3.80;99.90
11762;DHT22;5938;47.098;15.474;2022-12-10T08:14:34;3.80;99.90
11762;DHT22;5938;47.098;15.474;2022-12-10T08:18:38;3.90;99.90
11762;DHT22;5938;47.098;15.474;2022-12-10T08:22:41;3.90;99.90
11762;DHT22;5938;47.098;15.474;2022-12-10T08:26:48;3.80;99.90
11762;DHT22;5938;47.098;15.474;2022-12-10T08:30:53;3.90;99.90
11762;DHT22;5938;47.098;15.474;2022-12-10T08:34:57;3.80;99.90
11762;DHT22;5938;47.098;15.474;2022-12-10T08:39:01;3.70;99.90
11762;DHT22;5938;47.098;15.474;2022-12-10T08:43:04;3.80;99.90
11762;DHT22;5938;47.098;15.474;2022-12-10T08:47:09;3.70;99.90
11762;DHT22;5938;47.098;15.474;2022-12-10T08:51:15;3.80;99.90
11762;DHT22;5938;47.098;15.474;2022-12-10T08:55:21;3.80;99.90
11762;DHT22;5938;47.098;15.474;2022-12-10T08:59:24;3.80;99.90
11762;DHT22;5938;47.098;15.474;2022-12-10T09:03:29;3.80;99.90
11762;DHT22;5938;47.098;15.474;2022-12-10T09:07:32;3.80;99.90
11762;DHT22;5938;47.098;15.474;2022-12-10T09:11:36;3.80;99.90
11762;DHT22;5938;47.098;15.474;2022-12-10T09:15:39;3.90;99.90
11762;DHT22;5938;47.098;15.474;2022-12-10T09:19:44;3.90;99.90
11762;DHT22;5938;47.098;15.474;2022-12-10T09:23:47;4.00;99.90
11762;DHT22;5938;47.098;15.474;2022-12-10T09:27:52;4.00;99.90
11762;DHT22;5938;47.098;15.474;2022-12-10T09:31:55;4.10;99.90
11762;DHT22;5938;47.098;15.474;2022-12-10T09:36:02;4.10;99.90
11762;DHT22;5938;47.098;15.474;2022-12-10T09:40:06;4.10;99.90
11762;DHT22;5938;47.098;15.474;2022-12-10T09:44:19;4.10;99.90
11762;DHT22;5938;47.098;15.474;2022-12-10T09:48:30;4.20;99.90
11762;DHT22;5938;47.098;15.474;2022-12-10T09:52:42;4.10;99.90
11762;DHT22;5938;47.098;15.474;2022-12-10T09:56:48;4.20;99.90
11762;DHT22;5938;47.098;15.474;2022-12-10T10:00:57;4.10;99.90
11762;DHT22;5938;47.098;15.474;2022-12-10T10:05:10;4.20;99.90
11762;DHT22;5938;47.098;15.474;2022-12-10T10:09:15;4.20;99.90
11762;DHT22;5938;47.098;15.474;2022-12-10T10:13:29;4.20;99.90
11762;DHT22;5938;47.098;15.474;2022-12-10T10:17:38;4.20;99.90
11762;DHT22;5938;47.098;15.474;2022-12-10T10:21:51;4.20;99.90
11762;DHT22;5938;47.098;15.474;2022-12-10T10:25:56;4.20;99.90
11762;DHT22;5938;47.098;15.474;2022-12-10T10:30:02;4.30;99.90
11762;DHT22;5938;47.098;15.474;2022-12-10T10:34:13;4.30;99.90
11762;DHT22;5938;47.098;15.474;2022-12-10T10:38:19;4.40;99.90
11762;DHT22;5938;47.098;15.474;2022-12-10T10:42:34;4.40;99.90
11762;DHT22;5938;47.098;15.474;2022-12-10T10:46:39;4.40;99.90
11762;DHT22;5938;47.098;15.474;2022-12-10T10:50:45;4.50;99.90
11762;DHT22;5938;47.098;15.474;2022-12-10T10:54:48;4.50;99.90
11762;DHT22;5938;47.098;15.474;2022-12-10T10:58:57;4.70;99.90
11762;DHT22;5938;47.098;15.474;2022-12-10T11:03:01;4.70;99.90
11762;DHT22;5938;47.098;15.474;2022-12-10T11:07:16;4.80;99.90
11762;DHT22;5938;47.098;15.474;2022-12-10T11:11:31;4.80;99.90
11762;DHT22;5938;47.098;15.474;2022-12-10T11:15:40;4.70;99.90
11762;DHT22;5938;47.098;15.474;2022-12-10T11:19:54;4.60;99.90
11762;DHT22;5938;47.098;15.474;2022-12-10T11:23:59;4.60;99.90
11762;DHT22;5938;47.098;15.474;2022-12-10T11:28:09;4.60;99.90
11762;DHT22;5938;47.098;15.474;2022-12-10T11:32:26;4.60;99.90
11762;DHT22;5938;47.098;15.474;2022-12-10T11:36:37;4.40;99.90
11762;DHT22;5938;47.098;15.474;2022-12-10T11:40:47;4.40;99.90
11762;DHT22;5938;47.098;15.474;2022-12-10T11:44:56;4.30;99.90
11762;DHT22;5938;47.098;15.474;2022-12-10T11:49:17;4.20;99.90
11762;DHT22;5938;47.098;15.474;2022-12-10T11:53:48;4.20;99.90
11762;DHT22;5938;47.098;15.474;2022-12-10T11:58:03;4.30;99.90
11762;DHT22;5938;47.098;15.474;2022-12-10T12:02:24;4.40;99.90
11762;DHT22;5938;47.098;15.474;2022-12-10T12:06:46;4.40;99.90
11762;DHT22;5938;47.098;15.474;2022-12-10T12:11:12;4.30;99.90
11762;DHT22;5938;47.098;15.474;2022-12-10T12:15:20;4.30;99.90
11762;DHT22;5938;47.098;15.474;2022-12-10T12:19:32;4.30;99.90
11762;DHT22;5938;47.098;15.474;2022-12-10T12:23:46;4.30;99.90
11762;DHT22;5938;47.098;15.474;2022-12-10T12:27:55;4.30;99.90
11762;DHT22;5938;47.098;15.474;2022-12-10T12:32:02;4.20;99.90
11762;DHT22;5938;47.098;15.474;2022-12-10T12:36:11;4.20;99.90
11762;DHT22;5938;47.098;15.474;2022-12-10T12:40:27;4.10;99.90
11762;DHT22;5938;47.098;15.474;2022-12-10T12:44:36;4.00;99.90
11762;DHT22;5938;47.098;15.474;2022-12-10T12:48:48;4.00;99.90
11762;DHT22;5938;47.098;15.474;2022-12-10T12:52:58;4.00;99.90
11762;DHT22;5938;47.098;15.474;2022-12-10T12:57:07;4.10;99.90
11762;DHT22;5938;47.098;15.474;2022-12-10T13:01:19;4.00;99.90
11762;DHT22;5938;47.098;15.474;2022-12-10T13:05:26;4.00;99.90
11762;DHT22;5938;47.098;15.474;2022-12-10T13:09:31;3.90;99.90
11762;DHT22;5938;47.098;15.474;2022-12-10T13:13:38;3.90;99.90
11762;DHT22;5938;47.098;15.474;2022-12-10T13:18:01;3.90;99.90
11762;DHT22;5938;47.098;15.474;2022-12-10T13:22:07;3.80;99.90
11762;DHT22;5938;47.098;15.474;2022-12-10T13:26:23;3.80;99.90
11762;DHT22;5938;47.098;15.474;2022-12-10T13:30:35;3.80;99.90
11762;DHT22;5938;47.098;15.474;2022-12-10T13:34:39;3.80;99.90
11762;DHT22;5938;47.098;15.474;2022-12-10T13:38:57;3.70;99.90
11762;DHT22;5938;47.098;15.474;2022-12-10T13:43:24;3.70;99.90
11762;DHT22;5938;47.098;15.474;2022-12-10T13:47:52;3.80;99.90
11762;DHT22;5938;47.098;15.474;2022-12-10T13:51:59;3.70;99.90
11762;DHT22;5938;47.098;15.474;2022-12-10T13:56:10;3.70;99.90
11762;DHT22;5938;47.098;15.474;2022-12-10T14:00:18;3.70;99.90
11762;DHT22;5938;47.098;15.474;2022-12-10T14:04:47;3.70;99.90
11762;DHT22;5938;47.098;15.474;2022-12-10T14:09:03;3.60;99.90
11762;DHT22;5938;47.098;15.474;2022-12-10T14:13:12;3.60;99.90
11762;DHT22;5938;47.098;15.474;2022-12-10T14:17:19;3.50;99.90
11762;DHT22;5938;47.098;15.474;2022-12-10T14:21:28;3.50;99.90
11762;DHT22;5938;47.098;15.474;2022-12-10T14:25:42;3.40;99.90
11762;DHT22;5938;47.098;15.474;2022-12-10T14:29:52;3.30;99.90
11762;DHT22;5938;47.098;15.474;2022-12-10T14:34:01;3.20;99.90
11762;DHT22;5938;47.098;15.474;2022-12-10T14:38:16;3.10;99.90
11762;DHT22;5938;47.098;15.474;2022-12-10T14:42:20;3.10;99.90
11762;DHT22;5938;47.098;15.474;2022-12-10T14:46:25;3.00;99.90
11762;DHT22;5938;47.098;15.474;2022-12-10T14:50:30;3.00;99.90
11762;DHT22;5938;47.098;15.474;2022-12-10T14:54:35;3.00;99.90
11762;DHT22;5938;47.098;15.474;2022-12-10T14:58:41;3.00;99.90
11762;DHT22;5938;47.098;15.474;2022-12-10T15:02:48;2.90;99.90
11762;DHT22;5938;47.098;15.474;2022-12-10T15:06:52;2.80;99.90
11762;DHT22;5938;47.098;15.474;2022-12-10T15:11:02;2.70;99.90
11762;DHT22;5938;47.098;15.474;2022-12-10T15:15:13;2.70;99.90
11762;DHT22;5938;47.098;15.474;2022-12-10T15:19:21;2.60;99.90
11762;DHT22;5938;47.098;15.474;2022-12-10T15:23:33;2.50;99.90
11762;DHT22;5938;47.098;15.474;2022-12-10T15:27:39;2.40;99.90
11762;DHT22;5938;47.098;15.474;2022-12-10T15:31:44;2.40;99.90
11762;DHT22;5938;47.098;15.474;2022-12-10T15:35:49;2.20;99.90
11762;DHT22;5938;47.098;15.474;2022-12-10T15:39:56;2.10;99.90
11762;DHT22;5938;47.098;15.474;2022-12-10T15:44:06;2.10;99.90
11762;DHT22;5938;47.098;15.474;2022-12-10T15:48:12;2.10;99.90
11762;DHT22;5938;47.098;15.474;2022-12-10T15:52:18;2.10;99.90
11762;DHT22;5938;47.098;15.474;2022-12-10T15:56:25;2.00;99.90
11762;DHT22;5938;47.098;15.474;2022-12-10T16:00:33;1.90;99.90
11762;DHT22;5938;47.098;15.474;2022-12-10T16:04:37;1.80;99.90
11762;DHT22;5938;47.098;15.474;2022-12-10T16:08:41;1.80;99.90
11762;DHT22;5938;47.098;15.474;2022-12-10T16:12:48;1.70;99.90
11762;DHT22;5938;47.098;15.474;2022-12-10T16:28:18;1.40;99.90
11762;DHT22;5938;47.098;15.474;2022-12-10T16:32:31;1.20;99.90
11762;DHT22;5938;47.098;15.474;2022-12-10T16:36:47;1.10;99.90
11762;DHT22;5938;47.098;15.474;2022-12-10T16:40:52;1.10;99.90
11762;DHT22;5938;47.098;15.474;2022-12-10T16:45:12;1.00;99.90
11762;DHT22;5938;47.098;15.474;2022-12-10T16:49:18;1.00;99.90
11762;DHT22;5938;47.098;15.474;2022-12-10T16:53:25;0.90;99.90
11762;DHT22;5938;47.098;15.474;2022-12-10T16:57:35;1.00;99.90
11762;DHT22;5938;47.098;15.474;2022-12-10T17:01:46;1.10;99.90
11762;DHT22;5938;47.098;15.474;2022-12-10T17:05:52;0.90;99.90
11762;DHT22;5938;47.098;15.474;2022-12-10T17:09:57;0.90;99.90
11762;DHT22;5938;47.098;15.474;2022-12-10T17:14:03;0.90;99.90
11762;DHT22;5938;47.098;15.474;2022-12-10T17:18:12;0.90;99.90
11762;DHT22;5938;47.098;15.474;2022-12-10T17:22:17;1.00;99.90
11762;DHT22;5938;47.098;15.474;2022-12-10T17:26:26;0.90;99.90
11762;DHT22;5938;47.098;15.474;2022-12-10T17:30:29;1.00;99.90
11762;DHT22;5938;47.098;15.474;2022-12-10T17:34:35;1.00;99.90
11762;DHT22;5938;47.098;15.474;2022-12-10T17:38:39;0.60;99.90
11762;DHT22;5938;47.098;15.474;2022-12-10T17:42:42;1.00;99.90
11762;DHT22;5938;47.098;15.474;2022-12-10T17:46:46;0.90;99.90
11762;DHT22;5938;47.098;15.474;2022-12-10T17:50:52;1.00;99.90
11762;DHT22;5938;47.098;15.474;2022-12-10T17:54:55;1.10;99.90
11762;DHT22;5938;47.098;15.474;2022-12-10T17:58:59;1.00;99.90
11762;DHT22;5938;47.098;15.474;2022-12-10T18:03:04;1.10;99.90
11762;DHT22;5938;47.098;15.474;2022-12-10T18:07:35;0.80;99.90
11762;DHT22;5938;47.098;15.474;2022-12-10T18:11:41;1.00;99.90
11762;DHT22;5938;47.098;15.474;2022-12-10T18:15:48;1.00;99.90
11762;DHT22;5938;47.098;15.474;2022-12-10T18:19:54;1.00;99.90
11762;DHT22;5938;47.098;15.474;2022-12-10T18:24:04;1.10;99.90
11762;DHT22;5938;47.098;15.474;2022-12-10T18:28:50;1.00;99.90
11762;DHT22;5938;47.098;15.474;2022-12-10T18:32:58;1.00;99.90
11762;DHT22;5938;47.098;15.474;2022-12-10T18:37:17;1.00;99.90
11762;DHT22;5938;47.098;15.474;2022-12-10T18:41:32;1.00;99.90
11762;DHT22;5938;47.098;15.474;2022-12-10T18:45:39;1.10;99.90
11762;DHT22;5938;47.098;15.474;2022-12-10T18:49:45;0.70;99.90
11762;DHT22;5938;47.098;15.474;2022-12-10T18:53:50;1.20;99.90
11762;DHT22;5938;47.098;15.474;2022-12-10T18:57:59;1.20;99.90
11762;DHT22;5938;47.098;15.474;2022-12-10T19:02:10;1.20;99.90
11762;DHT22;5938;47.098;15.474;2022-12-10T19:06:23;1.20;99.90
11762;DHT22;5938;47.098;15.474;2022-12-10T19:10:30;1.30;99.90
11762;DHT22;5938;47.098;15.474;2022-12-10T19:14:40;1.30;99.90
11762;DHT22;5938;47.098;15.474;2022-12-10T19:18:52;1.30;99.90
11762;DHT22;5938;47.098;15.474;2022-12-10T19:23:09;1.20;99.90
11762;DHT22;5938;47.098;15.474;2022-12-10T19:27:20;1.40;99.90
11762;DHT22;5938;47.098;15.474;2022-12-10T19:31:34;1.30;99.90
11762;DHT22;5938;47.098;15.474;2022-12-10T19:35:42;1.30;99.90
11762;DHT22;5938;47.098;15.474;2022-12-10T19:39:56;1.40;99.90
11762;DHT22;5938;47.098;15.474;2022-12-10T19:44:12;1.40;99.90
11762;DHT22;5938;47.098;15.474;2022-12-10T19:48:32;1.30;99.90
11762;DHT22;5938;47.098;15.474;2022-12-10T19:53:03;1.30;99.90
11762;DHT22;5938;47.098;15.474;2022-12-10T19:57:24;1.30;99.90
11762;DHT22;5938;47.098;15.474;2022-12-10T20:01:39;1.30;99.90
11762;DHT22;5938;47.098;15.474;2022-12-10T20:05:49;1.40;99.90
11762;DHT22;5938;47.098;15.474;2022-12-10T20:09:55;1.40;99.90
11762;DHT22;5938;47.098;15.474;2022-12-10T20:14:03;1.40;99.90
11762;DHT22;5938;47.098;15.474;2022-12-10T20:18:10;1.50;99.90
11762;DHT22;5938;47.098;15.474;2022-12-10T20:22:31;1.30;99.90
11762;DHT22;5938;47.098;15.474;2022-12-10T20:26:40;1.40;99.90
11762;DHT22;5938;47.098;15.474;2022-12-10T20:31:00;1.40;99.90
11762;DHT22;5938;47.098;15.474;2022-12-10T20:35:17;1.40;99.90
11762;DHT22;5938;47.098;15.474;2022-12-10T20:39:52;1.40;99.90
11762;DHT22;5938;47.098;15.474;2022-12-10T20:44:29;1.00;99.90
11762;DHT22;5938;47.098;15.474;2022-12-10T20:48:35;1.40;99.90
11762;DHT22;5938;47.098;15.474;2022-12-10T20:52:41;1.40;99.90
11762;DHT22;5938;47.098;15.474;2022-12-10T20:56:55;1.40;99.90
11762;DHT22;5938;47.098;15.474;2022-12-10T21:01:01;1.60;99.90
11762;DHT22;5938;47.098;15.474;2022-12-10T21:05:07;1.50;99.90
11762;DHT22;5938;47.098;15.474;2022-12-10T21:09:14;1.50;99.90
11762;DHT22;5938;47.098;15.474;2022-12-10T21:13:24;1.20;99.90
11762;DHT22;5938;47.098;15.474;2022-12-10T21:17:28;1.30;99.90
11762;DHT22;5938;47.098;15.474;2022-12-10T21:21:50;1.40;99.90
11762;DHT22;5938;47.098;15.474;2022-12-10T21:26:07;1.40;99.90
11762;DHT22;5938;47.098;15.474;2022-12-10T21:30:57;1.40;99.90
11762;DHT22;5938;47.098;15.474;2022-12-10T21:35:50;1.40;99.90
11762;DHT22;5938;47.098;15.474;2022-12-10T21:40:07;1.40;99.90
11762;DHT22;5938;47.098;15.474;2022-12-10T21:44:27;1.40;99.90
11762;DHT22;5938;47.098;15.474;2022-12-10T21:48:38;1.40;99.90
11762;DHT22;5938;47.098;15.474;2022-12-10T21:52:57;1.40;99.90
11762;DHT22;5938;47.098;15.474;2022-12-10T21:57:11;1.30;99.90
11762;DHT22;5938;47.098;15.474;2022-12-10T22:06:35;1.50;99.90
11762;DHT22;5938;47.098;15.474;2022-12-10T22:10:40;1.70;99.90
11762;DHT22;5938;47.098;15.474;2022-12-10T22:14:50;1.70;99.90
11762;DHT22;5938;47.098;15.474;2022-12-10T22:18:59;1.90;99.90
11762;DHT22;5938;47.098;15.474;2022-12-10T22:23:07;1.90;99.90
11762;DHT22;5938;47.098;15.474;2022-12-10T22:27:17;1.90;99.90
11762;DHT22;5938;47.098;15.474;2022-12-10T22:31:26;2.00;99.90
11762;DHT22;5938;47.098;15.474;2022-12-10T22:35:31;2.00;99.90
11762;DHT22;5938;47.098;15.474;2022-12-10T22:39:36;2.10;99.90
11762;DHT22;5938;47.098;15.474;2022-12-10T22:43:39;2.10;99.90
11762;DHT22;5938;47.098;15.474;2022-12-10T22:47:52;2.10;99.90
11762;DHT22;5938;47.098;15.474;2022-12-10T22:51:55;2.00;99.90
11762;DHT22;5938;47.098;15.474;2022-12-10T22:56:02;2.10;99.90
11762;DHT22;5938;47.098;15.474;2022-12-10T23:00:09;2.20;99.90
11762;DHT22;5938;47.098;15.474;2022-12-10T23:04:15;2.20;99.90
11762;DHT22;5938;47.098;15.474;2022-12-10T23:08:19;2.20;99.90
11762;DHT22;5938;47.098;15.474;2022-12-10T23:12:24;2.10;99.90
11762;DHT22;5938;47.098;15.474;2022-12-10T23:16:44;2.20;99.90
11762;DHT22;5938;47.098;15.474;2022-12-10T23:20:48;2.20;99.90
11762;DHT22;5938;47.098;15.474;2022-12-10T23:24:51;2.20;99.90
11762;DHT22;5938;47.098;15.474;2022-12-10T23:28:56;2.20;99.90
11762;DHT22;5938;47.098;15.474;2022-12-10T23:32:59;2.20;99.90
11762;DHT22;5938;47.098;15.474;2022-12-10T23:37:09;2.30;99.90
11762;DHT22;5938;47.098;15.474;2022-12-10T23:41:13;2.30;99.90
11762;DHT22;5938;47.098;15.474;2022-12-10T23:45:18;2.30;99.90
11762;DHT22;5938;47.098;15.474;2022-12-10T23:49:24;2.40;99.90
11762;DHT22;5938;47.098;15.474;2022-12-10T23:53:28;2.40;99.90
11762;DHT22;5938;47.098;15.474;2022-12-10T23:57:31;2.30;99.90
